地図

経路データ

SID SEASON NUMBER BASIN SUBBASIN NAME ISO_TIME NATURE LAT LON WMO_WIND WMO_PRES WMO_AGENCY TRACK_TYPE DIST2LAND LANDFALL IFLAG USA_AGENCY USA_ATCF_ID USA_LAT USA_LON USA_RECORD USA_STATUS USA_WIND USA_PRES USA_SSHS USA_R34_NE USA_R34_SE USA_R34_SW USA_R34_NW USA_R50_NE USA_R50_SE USA_R50_SW USA_R50_NW USA_R64_NE USA_R64_SE USA_R64_SW USA_R64_NW USA_POCI USA_ROCI USA_RMW USA_EYE TOKYO_LAT TOKYO_LON TOKYO_GRADE TOKYO_WIND TOKYO_PRES TOKYO_R50_DIR TOKYO_R50_LONG TOKYO_R50_SHORT TOKYO_R30_DIR TOKYO_R30_LONG TOKYO_R30_SHORT TOKYO_LAND CMA_LAT CMA_LON CMA_CAT CMA_WIND CMA_PRES HKO_LAT HKO_LON HKO_CAT HKO_WIND HKO_PRES NEWDELHI_LAT NEWDELHI_LON NEWDELHI_GRADE NEWDELHI_WIND NEWDELHI_PRES NEWDELHI_CI NEWDELHI_DP NEWDELHI_POCI REUNION_LAT REUNION_LON REUNION_TYPE REUNION_WIND REUNION_PRES REUNION_TNUM REUNION_CI REUNION_RMW REUNION_R34_NE REUNION_R34_SE REUNION_R34_SW REUNION_R34_NW REUNION_R50_NE REUNION_R50_SE REUNION_R50_SW REUNION_R50_NW REUNION_R64_NE REUNION_R64_SE REUNION_R64_SW REUNION_R64_NW BOM_LAT BOM_LON BOM_TYPE BOM_WIND BOM_PRES BOM_TNUM BOM_CI BOM_RMW BOM_R34_NE BOM_R34_SE BOM_R34_SW BOM_R34_NW BOM_R50_NE BOM_R50_SE BOM_R50_SW BOM_R50_NW BOM_R64_NE BOM_R64_SE BOM_R64_SW BOM_R64_NW BOM_ROCI BOM_POCI BOM_EYE BOM_POS_METHOD BOM_PRES_METHOD NADI_LAT NADI_LON NADI_CAT NADI_WIND NADI_PRES WELLINGTON_LAT WELLINGTON_LON WELLINGTON_WIND WELLINGTON_PRES DS824_LAT DS824_LON DS824_STAGE DS824_WIND DS824_PRES TD9636_LAT TD9636_LON TD9636_STAGE TD9636_WIND TD9636_PRES TD9635_LAT TD9635_LON TD9635_WIND TD9635_PRES TD9635_ROCI NEUMANN_LAT NEUMANN_LON NEUMANN_CLASS NEUMANN_WIND NEUMANN_PRES MLC_LAT MLC_LON MLC_CLASS MLC_WIND MLC_PRES USA_GUST BOM_GUST BOM_GUST_PER REUNION_GUST REUNION_GUST_PER USA_SEAHGT USA_SEARAD_NE USA_SEARAD_SE USA_SEARAD_SW USA_SEARAD_NW STORM_SPEED STORM_DIR
1884236N13127 1884 26 WP MM NOT_NAMED 1884-08-22 16:00:00 NR 13.4000 127.400 main 246 243 __________O___ -1 13.4000 127.400 7 5 317
1884236N13127 1884 26 WP MM NOT_NAMED 1884-08-22 18:00:00 NR 13.5157 127.290 main 243 241 __________P___ -1 13.5157 127.290 7 5 319
1884236N13127 1884 26 WP MM NOT_NAMED 1884-08-22 21:00:00 NR 13.7208 127.116 main 241 241 __________P___ -1 13.7208 127.116 7 6 324
1884236N13127 1884 26 WP MM NOT_NAMED 1884-08-23 00:00:00 NR 14.0072 126.920 main 249 249 __________P___ -1 14.0072 126.920 7 8 329
1884236N13127 1884 26 WP MM NOT_NAMED 1884-08-23 03:00:00 NR 14.4238 126.688 main 254 246 __________P___ -1 14.4238 126.688 7 10 333
1884236N13127 1884 26 WP MM NOT_NAMED 1884-08-23 04:00:00 NR 14.6000 126.600 main 249 242 __________O___ -1 14.6000 126.600 7 13 335
1884236N13127 1884 26 WP MM NOT_NAMED 1884-08-23 06:00:00 NR 15.0137 126.408 main 248 251 __________P___ -1 15.0137 126.408 7 15 337
1884236N13127 1884 26 WP MM NOT_NAMED 1884-08-23 09:00:00 NR 15.7541 126.094 main 279 279 __________P___ -1 15.7541 126.094 7 17 339
1884236N13127 1884 26 WP MM NOT_NAMED 1884-08-23 12:00:00 NR 16.5799 125.776 main 332 319 __________P___ -1 16.5799 125.776 7 18 341
1884236N13127 1884 26 WP MM NOT_NAMED 1884-08-23 15:00:00 NR 17.4252 125.485 main 321 315 __________P___ -1 17.4252 125.485 7 18 342
1884236N13127 1884 26 WP MM NOT_NAMED 1884-08-23 16:00:00 NR 17.7000 125.400 main 317 306 __________O___ -1 17.7000 125.400 7 16 343
1884236N13127 1884 26 WP MM NOT_NAMED 1884-08-23 18:00:00 NR 18.1711 125.239 main 306 288 __________P___ -1 18.1711 125.239 7 15 344
1884236N13127 1884 26 WP MM NOT_NAMED 1884-08-23 21:00:00 NR 18.8646 125.036 main 289 289 __________P___ -1 18.8646 125.036 7 14 347
1884236N13127 1884 26 WP MM NOT_NAMED 1884-08-24 00:00:00 NR 19.5730 124.889 main 304 304 __________P___ -1 19.5730 124.889 7 15 352
1884236N13127 1884 26 WP MM NOT_NAMED 1884-08-24 03:00:00 NR 20.3306 124.809 main 337 344 __________P___ -1 20.3306 124.809 7 16 355
1884236N13127 1884 26 WP MM NOT_NAMED 1884-08-24 04:00:00 NR 20.6000 124.800 main 359 359 __________O___ -1 20.6000 124.800 7 17 358
1884236N13127 1884 26 WP MM NOT_NAMED 1884-08-24 06:00:00 NR 21.1844 124.784 main 408 366 __________P___ -1 21.1844 124.784 7 18 0
1884236N13127 1884 26 WP MM NOT_NAMED 1884-08-24 09:00:00 NR 22.1180 124.822 main 366 342 __________P___ -1 22.1180 124.822 7 19 4
1884236N13127 1884 26 WP MM NOT_NAMED 1884-08-24 12:00:00 NR 23.0921 124.935 main 342 326 __________P___ -1 23.0921 124.935 7 20 8
1884236N13127 1884 26 WP MM NOT_NAMED 1884-08-24 15:00:00 NR 24.0755 125.122 main 327 325 __________P___ -1 24.0755 125.122 7 20 10
1884236N13127 1884 26 WP MM NOT_NAMED 1884-08-24 16:00:00 NR 24.4000 125.200 main 329 325 __________O___ -1 24.4000 125.200 7 20 14
1884236N13127 1884 26 WP MM NOT_NAMED 1884-08-24 18:00:00 NR 25.0390 125.380 main 342 342 __________P___ -1 25.0390 125.380 7 20 16
1884236N13127 1884 26 WP MM NOT_NAMED 1884-08-24 21:00:00 NR 25.9757 125.701 main 387 387 __________P___ -1 25.9757 125.701 7 20 18
1884236N13127 1884 26 WP MM NOT_NAMED 1884-08-25 00:00:00 NR 26.8933 126.068 main 461 461 __________P___ -1 26.8933 126.068 7 20 20
1884236N13127 1884 26 WP MM NOT_NAMED 1884-08-25 03:00:00 NR 27.7993 126.464 main 466 462 __________P___ -1 27.7993 126.464 7 20 21
1884236N13127 1884 26 WP MM NOT_NAMED 1884-08-25 04:00:00 NR 28.1000 126.600 main 464 __________O___ -1 28.1000 126.600 7 20 22

デジタル台風データ・検索

IBTrACS Databaseについて

本データベースは、米国NOAAが公開する1842年以降の世界の熱帯低気圧のベストトラックデータアーカイブInternational Best Track Archive for Climate Stewardship (IBTrACS)を、ウェブで閲覧しやすい形式に変換したものです。

最終更新日:2021-10-21